Time;durP1;ratioP1;P1;durP2;ratioP2;P2;SDS_P1;SDS_P2;PMS_P1;PMS_P2;Temp;Humidity;BMP_temperature;BMP_pressure;BME280_temperature;BME280_humidity;BME280_pressure;Samples;Min_cycle;Max_cycle;Signal;HPM_P1;HPM_P2
2023/04/04 00:01:30;;;;;;;;;;;;;;;1.81;67.49;102958.78;5007703;28;1101;-76
2023/04/04 00:03:56;;;;;;;;;;;;;;;1.75;67.20;102956.28;5003767;28;1096;-76
2023/04/04 00:06:21;;;;;;;;;;;;;;;1.72;67.79;102946.94;5002460;28;1203;-76
2023/04/04 00:08:46;;;;;;;;;;;;;;;1.68;67.88;102949.56;5002778;28;1202;-76
2023/04/04 00:11:12;;;;;;;;;;;;;;;1.65;67.72;102952.13;5004163;28;1140;-76
2023/04/04 00:13:38;;;;;;;;;;;;;;;1.65;67.78;102954.69;5009260;28;1382;-76
2023/04/04 00:16:04;;;;;;;;;;;;;;;1.65;68.40;102954.69;5001583;28;1941;-76
2023/04/04 00:18:29;;;;;;;;;;;;;;;1.65;67.72;102944.44;5007035;28;1514;-76
2023/04/04 00:20:55;;;;;;;;;;;;;;;1.66;67.97;102948.69;5003989;28;1314;-76
2023/04/04 00:23:21;;;;;;;;;;;;;;;1.66;68.15;102953.81;5007576;28;1336;-75
2023/04/04 00:25:50;;;;;;;;;;;;;;;1.64;68.35;102958.13;5008205;28;1262;-76
2023/04/04 00:28:15;;;;;;;;;;;;;;;1.63;68.57;102951.31;4999567;28;1423;-77
2023/04/04 00:30:40;;;;;;;;;;;;;;;1.63;68.71;102951.31;4995404;28;1163;-76
2023/04/04 00:33:06;;;;;;;;;;;;;;;1.64;68.61;102947.88;5007232;28;1579;-76
2023/04/04 00:35:31;;;;;;;;;;;;;;;1.63;68.33;102946.19;5003943;28;1914;-76
2023/04/04 00:37:56;;;;;;;;;;;;;;;1.65;68.97;102949.56;5004859;28;1113;-76
2023/04/04 00:40:22;;;;;;;;;;;;;;;1.65;68.46;102939.34;5019782;28;1215;-75
2023/04/04 00:42:47;;;;;;;;;;;;;;;1.65;68.56;102947.00;4984406;28;1491;-76
2023/04/04 00:45:13;;;;;;;;;;;;;;;1.65;68.28;102945.31;4997656;28;1318;-76
2023/04/04 00:47:38;;;;;;;;;;;;;;;1.63;68.89;102938.53;5007539;28;1152;-76
2023/04/04 00:50:03;;;;;;;;;;;;;;;1.62;68.48;102939.38;5008216;28;1094;-76
2023/04/04 00:52:29;;;;;;;;;;;;;;;1.59;68.82;102935.97;5001685;28;1064;-77
2023/04/04 00:54:55;;;;;;;;;;;;;;;1.56;68.16;102925.78;4998668;28;2001;-76
2023/04/04 00:57:21;;;;;;;;;;;;;;;1.55;68.48;102923.25;4998860;28;1078;-76
2023/04/04 00:59:46;;;;;;;;;;;;;;;1.52;68.74;102924.13;4995613;28;1090;-75
2023/04/04 01:02:12;;;;;;;;;;;;;;;1.50;68.28;102915.63;5011995;28;966;-76
2023/04/04 01:04:37;;;;;;;;;;;;;;;1.47;68.73;102915.66;5003603;28;954;-76
2023/04/04 01:07:03;;;;;;;;;;;;;;;1.47;69.02;102920.75;4999917;28;1324;-76
2023/04/04 01:09:28;;;;;;;;;;;;;;;1.48;68.83;102922.44;4999109;28;1158;-76
2023/04/04 01:11:54;;;;;;;;;;;;;;;1.47;68.76;102920.75;5004884;28;1105;-77
2023/04/04 01:14:19;;;;;;;;;;;;;;;1.42;68.71;102919.13;4998611;28;1973;-76
2023/04/04 01:16:45;;;;;;;;;;;;;;;1.43;68.52;102926.75;4998201;28;1255;-76
2023/04/04 01:19:13;;;;;;;;;;;;;;;1.41;68.78;102920.81;4978513;28;1515;-76
2023/04/04 01:21:39;;;;;;;;;;;;;;;1.39;69.37;102932.78;4994603;28;1198;-77
2023/04/04 01:24:05;;;;;;;;;;;;;;;1.37;68.85;102919.16;5008733;28;1144;-77
2023/04/04 01:26:30;;;;;;;;;;;;;;;1.35;69.12;102918.34;5003937;28;1102;-76
2023/04/04 01:28:56;;;;;;;;;;;;;;;1.34;69.17;102919.19;4999758;28;1161;-76
2023/04/04 01:31:27;;;;;;;;;;;;;;;1.32;69.21;102924.34;4999896;28;1217;-76
2023/04/04 01:34:05;;;;;;;;;;;;;;;1.30;69.65;102922.63;5003180;28;1206;-76
2023/04/04 01:36:35;;;;;;;;;;;;;;;1.28;69.20;102921.81;5003134;28;1958;-77
2023/04/04 01:39:20;;;;;;;;;;;;;;;1.27;69.06;102917.56;4990201;28;1394;-76
2023/04/04 01:41:46;;;;;;;;;;;;;;;1.24;69.46;102922.69;5004204;28;1194;-76
2023/04/04 01:44:14;;;;;;;;;;;;;;;1.22;68.91;102919.31;5000679;28;1182;-75
2023/04/04 01:46:39;;;;;;;;;;;;;;;1.20;69.07;102921.00;4999659;28;1217;-76
2023/04/04 01:49:05;;;;;;;;;;;;;;;1.20;68.91;102916.75;5006479;28;1267;-76
2023/04/04 01:51:30;;;;;;;;;;;;;;;1.18;69.53;102917.63;5007519;28;1218;-76
2023/04/04 01:53:56;;;;;;;;;;;;;;;1.15;69.86;102920.19;4977088;28;1134;-75
2023/04/04 01:56:21;;;;;;;;;;;;;;;1.14;69.32;102921.06;4986782;28;1894;-76
2023/04/04 01:58:47;;;;;;;;;;;;;;;1.12;69.60;102925.34;5003296;28;907;-75
2023/04/04 02:01:13;;;;;;;;;;;;;;;1.11;69.73;102921.13;5000850;28;1226;-76
2023/04/04 02:03:38;;;;;;;;;;;;;;;1.08;69.65;102916.00;5006296;28;1335;-76
2023/04/04 02:06:03;;;;;;;;;;;;;;;1.06;69.29;102923.69;5006543;28;1188;-75
2023/04/04 02:08:28;;;;;;;;;;;;;;;1.04;69.70;102925.44;5008266;28;1356;-76
2023/04/04 02:10:56;;;;;;;;;;;;;;;1.02;69.76;102927.97;5003407;28;1194;-76
2023/04/04 02:13:21;;;;;;;;;;;;;;;1.00;69.88;102929.72;5005851;28;1623;-76
2023/04/04 02:15:46;;;;;;;;;;;;;;;0.94;69.65;102929.75;4993184;28;1894;-75
2023/04/04 02:18:11;;;;;;;;;;;;;;;0.94;70.20;102926.34;4983817;28;1148;-76
2023/04/04 02:20:37;;;;;;;;;;;;;;;0.92;69.84;102923.81;4980027;28;1273;-77
2023/04/04 02:23:02;;;;;;;;;;;;;;;0.90;70.23;102928.06;5001391;28;1352;-77
2023/04/04 02:25:27;;;;;;;;;;;;;;;0.89;70.62;102926.38;5001350;28;1002;-76
2023/04/04 02:27:53;;;;;;;;;;;;;;;0.89;70.11;102928.94;4997400;28;1132;-76
2023/04/04 02:30:18;;;;;;;;;;;;;;;0.88;70.69;102934.06;5002448;28;1299;-76
2023/04/04 02:32:44;;;;;;;;;;;;;;;0.86;70.22;102936.66;5002134;28;1322;-76
2023/04/04 02:35:09;;;;;;;;;;;;;;;0.83;70.39;102926.44;4992518;28;1985;-76
2023/04/04 02:37:34;;;;;;;;;;;;;;;0.81;70.98;102928.16;5004794;28;1464;-76
2023/04/04 02:39:59;;;;;;;;;;;;;;;0.80;70.57;102926.44;5003413;28;1192;-77
2023/04/04 02:42:25;;;;;;;;;;;;;;;0.79;70.68;102929.84;5006420;28;1371;-76
2023/04/04 02:44:50;;;;;;;;;;;;;;;0.79;70.78;102925.59;4987298;28;1254;-76
2023/04/04 02:47:15;;;;;;;;;;;;;;;0.79;70.97;102929.84;5002237;28;1339;-76
2023/04/04 02:49:41;;;;;;;;;;;;;;;0.78;70.59;102920.50;5002484;28;1250;-76
2023/04/04 02:52:07;;;;;;;;;;;;;;;0.76;70.56;102915.41;4992596;28;1174;-76
2023/04/04 02:54:32;;;;;;;;;;;;;;;0.76;70.85;102919.69;5006110;28;1886;-77
2023/04/04 02:56:57;;;;;;;;;;;;;;;0.74;70.47;102926.47;5002799;28;1216;-75
2023/04/04 02:59:22;;;;;;;;;;;;;;;0.74;70.77;102922.22;5004721;28;1126;-77
2023/04/04 03:01:48;;;;;;;;;;;;;;;0.72;70.80;102916.28;4983152;28;1472;-77
2023/04/04 03:04:13;;;;;;;;;;;;;;;0.71;70.36;102916.31;5005156;28;1114;-77
2023/04/04 03:06:40;;;;;;;;;;;;;;;0.70;70.87;102914.63;4994237;28;1406;-76
2023/04/04 03:09:05;;;;;;;;;;;;;;;0.69;71.03;102907.78;4999028;28;1170;-76
2023/04/04 03:11:30;;;;;;;;;;;;;;;0.65;70.88;102917.19;4998905;28;1194;-76
2023/04/04 03:13:56;;;;;;;;;;;;;;;0.65;70.91;102901.88;5004589;28;1208;-75
2023/04/04 03:16:21;;;;;;;;;;;;;;;0.64;70.46;102904.44;4988933;28;1882;-75
2023/04/04 03:18:46;;;;;;;;;;;;;;;0.61;70.84;102900.19;5000596;28;1081;-76
2023/04/04 03:21:12;;;;;;;;;;;;;;;0.59;71.00;102906.19;4984000;28;1189;-75
2023/04/04 03:23:37;;;;;;;;;;;;;;;0.55;70.96;102904.50;5012257;28;1275;-75
2023/04/04 03:26:02;;;;;;;;;;;;;;;0.52;71.03;102895.16;5004973;28;1214;-76
2023/04/04 03:28:28;;;;;;;;;;;;;;;0.48;71.33;102899.44;5000022;28;1417;-76
2023/04/04 03:30:53;;;;;;;;;;;;;;;0.47;71.23;102887.53;5007973;28;1191;-76
2023/04/04 03:33:18;;;;;;;;;;;;;;;0.44;72.07;102887.53;5000612;28;1241;-76
2023/04/04 03:35:43;;;;;;;;;;;;;;;0.45;71.46;102889.22;5002944;28;1933;-75
2023/04/04 03:38:09;;;;;;;;;;;;;;;0.43;71.80;102896.06;5004494;28;1079;-75
2023/04/04 03:40:34;;;;;;;;;;;;;;;0.42;72.16;102899.47;4990995;28;1322;-76
2023/04/04 03:43:01;;;;;;;;;;;;;;;0.40;71.99;102900.31;5007904;28;1501;-76
2023/04/04 03:45:26;;;;;;;;;;;;;;;0.35;71.73;102902.91;5009504;28;1524;-76
2023/04/04 03:47:51;;;;;;;;;;;;;;;0.35;71.79;102902.91;5007305;28;1163;-76
2023/04/04 03:50:17;;;;;;;;;;;;;;;0.34;71.92;102898.66;5009249;28;1280;-76
2023/04/04 03:52:42;;;;;;;;;;;;;;;0.34;71.79;102900.34;5008012;28;1257;-76
2023/04/04 03:55:07;;;;;;;;;;;;;;;0.33;71.69;102894.41;5012190;28;1894;-76
2023/04/04 03:57:33;;;;;;;;;;;;;;;0.33;72.05;102891.84;5008121;28;1072;-74
2023/04/04 03:59:58;;;;;;;;;;;;;;;0.33;71.59;102894.41;4999953;28;1290;-75
2023/04/04 04:02:23;;;;;;;;;;;;;;;0.31;72.31;102891.03;4999926;28;1596;-76
2023/04/04 04:04:48;;;;;;;;;;;;;;;0.24;72.39;102868.97;4990920;28;1336;-78
2023/04/04 04:07:14;;;;;;;;;;;;;;;0.25;72.26;102881.69;5001321;28;946;-76
2023/04/04 04:09:39;;;;;;;;;;;;;;;0.24;72.77;102884.28;4998568;28;1130;-76
2023/04/04 04:12:05;;;;;;;;;;;;;;;0.24;72.18;102892.78;5008921;28;1069;-75
2023/04/04 04:14:30;;;;;;;;;;;;;;;0.26;72.54;102887.66;5008543;28;1886;-76
2023/04/04 04:16:55;;;;;;;;;;;;;;;0.26;72.07;102882.53;5009499;28;1049;-75
2023/04/04 04:19:20;;;;;;;;;;;;;;;0.23;72.78;102892.75;5005182;28;1065;-76
2023/04/04 04:21:46;;;;;;;;;;;;;;;0.21;72.80;102884.28;5010080;28;1123;-74
2023/04/04 04:24:12;;;;;;;;;;;;;;;0.18;72.86;102886.84;5004532;28;1094;-75
2023/04/04 04:26:37;;;;;;;;;;;;;;;0.18;72.76;102891.97;5008156;28;1228;-75
2023/04/04 04:29:02;;;;;;;;;;;;;;;0.16;72.81;102902.16;4994965;28;1224;-75
2023/04/04 04:31:27;;;;;;;;;;;;;;;0.14;72.93;102897.91;5008010;28;1480;-76
2023/04/04 04:33:53;;;;;;;;;;;;;;;0.11;72.78;102903.03;4996881;28;1296;-76
2023/04/04 04:36:18;;;;;;;;;;;;;;;0.08;72.76;102903.06;5004366;28;1930;-76
2023/04/04 04:38:43;;;;;;;;;;;;;;;0.06;73.32;102904.75;4990389;28;1436;-77
2023/04/04 04:41:08;;;;;;;;;;;;;;;0.03;73.18;102907.31;4997649;28;1326;-75
2023/04/04 04:43:35;;;;;;;;;;;;;;;-0.03;73.14;102906.50;4998941;28;1126;-75
2023/04/04 04:46:01;;;;;;;;;;;;;;;-0.01;73.17;102909.88;5003029;28;1237;-76
2023/04/04 04:48:26;;;;;;;;;;;;;;;-0.02;73.78;102905.63;4986055;28;1365;-76
2023/04/04 04:50:52;;;;;;;;;;;;;;;-0.05;74.01;102903.13;5004418;28;1286;-76
2023/04/04 04:53:17;;;;;;;;;;;;;;;-0.08;73.59;102902.25;5009344;28;1379;-76
2023/04/04 04:55:42;;;;;;;;;;;;;;;-0.13;73.93;102892.06;4996935;28;1906;-76
2023/04/04 04:58:09;;;;;;;;;;;;;;;-0.15;74.56;102900.59;5007245;28;1185;-75
2023/04/04 05:00:35;;;;;;;;;;;;;;;-0.19;74.60;102899.75;5006900;28;1099;-76
2023/04/04 05:03:00;;;;;;;;;;;;;;;-0.20;74.84;102909.97;5008185;28;1212;-77
2023/04/04 05:05:26;;;;;;;;;;;;;;;-0.23;75.13;102903.19;5006664;28;1154;-76
2023/04/04 05:07:51;;;;;;;;;;;;;;;-0.23;75.10;102898.09;5006721;28;1107;-75
2023/04/04 05:10:16;;;;;;;;;;;;;;;-0.22;74.67;102894.69;5002010;28;1162;-77
2023/04/04 05:12:43;;;;;;;;;;;;;;;-0.21;74.79;102906.56;5005977;28;1252;-76
2023/04/04 05:15:08;;;;;;;;;;;;;;;-0.20;74.64;102910.81;4989735;28;1886;-77
2023/04/04 05:17:34;;;;;;;;;;;;;;;-0.20;74.76;102913.34;5008595;28;1149;-76
2023/04/04 05:19:59;;;;;;;;;;;;;;;-0.19;75.24;102914.22;4994562;28;1435;-76
2023/04/04 05:22:25;;;;;;;;;;;;;;;-0.24;76.36;102916.75;5002153;28;1202;-76
2023/04/04 05:24:51;;;;;;;;;;;;;;;-0.29;76.67;102924.44;5012468;28;1068;-76
2023/04/04 05:27:16;;;;;;;;;;;;;;;-0.36;77.36;102924.44;5005044;28;1192;-77
2023/04/04 05:29:41;;;;;;;;;;;;;;;-0.39;76.14;102924.47;5008958;28;1148;-76
2023/04/04 05:32:06;;;;;;;;;;;;;;;-0.40;76.90;102920.19;4998536;28;1140;-75
2023/04/04 05:34:32;;;;;;;;;;;;;;;-0.36;76.43;102919.34;5000135;28;1969;-76
2023/04/04 05:36:57;;;;;;;;;;;;;;;-0.35;75.88;102923.59;5002266;28;1205;-75
2023/04/04 05:39:22;;;;;;;;;;;;;;;-0.34;75.92;102915.13;5000671;28;1154;-76
2023/04/04 05:41:48;;;;;;;;;;;;;;;-0.31;76.12;102917.63;4998482;28;1201;-76
2023/04/04 05:44:13;;;;;;;;;;;;;;;-0.28;76.28;102920.19;5009994;28;1212;-76
2023/04/04 05:46:38;;;;;;;;;;;;;;;-0.24;76.63;102915.91;4991543;28;1263;-76
2023/04/04 05:49:04;;;;;;;;;;;;;;;-0.21;75.88;102919.31;5009717;28;1162;-75
2023/04/04 05:51:29;;;;;;;;;;;;;;;-0.19;75.98;102930.34;5008572;28;1290;-76
2023/04/04 05:53:54;;;;;;;;;;;;;;;-0.15;75.65;102926.09;4998941;28;1100;-76
2023/04/04 05:56:20;;;;;;;;;;;;;;;-0.12;76.02;102926.91;4996117;28;1930;-76
2023/04/04 05:58:46;;;;;;;;;;;;;;;-0.07;75.96;102932.84;5007537;28;1164;-76
2023/04/04 06:01:11;;;;;;;;;;;;;;;-0.04;75.96;102920.09;5005446;28;1276;-76
2023/04/04 06:03:36;;;;;;;;;;;;;;;0.00;75.80;102923.50;5001220;28;1153;-76
2023/04/04 06:06:03;;;;;;;;;;;;;;;0.04;75.76;102931.97;5000142;28;1122;-76
2023/04/04 06:08:29;;;;;;;;;;;;;;;0.06;75.34;102920.06;4988754;28;1367;-75
2023/04/04 06:10:54;;;;;;;;;;;;;;;0.07;75.47;102929.44;4983749;28;1018;-76
2023/04/04 06:13:20;;;;;;;;;;;;;;;0.09;76.02;102930.25;5004857;28;1004;-76
2023/04/04 06:15:45;;;;;;;;;;;;;;;0.11;75.57;102931.09;4999943;28;1962;-75
2023/04/04 06:18:10;;;;;;;;;;;;;;;0.12;76.30;102935.38;5007132;28;976;-76
2023/04/04 06:20:35;;;;;;;;;;;;;;;0.14;76.52;102933.66;5004205;28;1188;-77
2023/04/04 06:23:03;;;;;;;;;;;;;;;0.17;76.16;102934.50;4999797;28;1303;-76
2023/04/04 06:25:28;;;;;;;;;;;;;;;0.19;76.82;102931.94;5007002;28;1121;-76
2023/04/04 06:27:54;;;;;;;;;;;;;;;0.25;76.45;102929.34;5000610;28;1153;-76
2023/04/04 06:30:19;;;;;;;;;;;;;;;0.30;76.32;102932.72;4988805;28;1175;-77
2023/04/04 06:32:44;;;;;;;;;;;;;;;0.34;76.10;102936.09;5006959;28;1471;-76
2023/04/04 06:35:10;;;;;;;;;;;;;;;0.37;76.22;102936.94;5000895;28;1966;-76
2023/04/04 06:37:35;;;;;;;;;;;;;;;0.41;76.47;102937.78;5006367;28;1109;-76
2023/04/04 06:40:00;;;;;;;;;;;;;;;0.45;76.07;102935.19;4995653;28;1237;-77
2023/04/04 06:42:25;;;;;;;;;;;;;;;0.51;75.03;102931.75;4994596;28;1289;-76
2023/04/04 06:44:51;;;;;;;;;;;;;;;0.57;75.31;102923.19;4998903;28;1002;-76
2023/04/04 06:47:16;;;;;;;;;;;;;;;0.64;76.07;102927.44;5003054;28;1150;-76
2023/04/04 06:49:41;;;;;;;;;;;;;;;0.70;75.57;102927.38;5005834;28;1205;-76
2023/04/04 06:52:06;;;;;;;;;;;;;;;0.78;75.91;102933.28;5008688;28;1345;-76
2023/04/04 06:54:32;;;;;;;;;;;;;;;0.84;75.86;102948.56;5007495;28;1958;-76
2023/04/04 06:56:57;;;;;;;;;;;;;;;0.91;75.37;102940.00;5010130;28;1162;-77
2023/04/04 06:59:22;;;;;;;;;;;;;;;0.99;75.47;102935.69;5001886;28;1164;-76
2023/04/04 07:01:47;;;;;;;;;;;;;;;1.09;76.25;102945.81;5010155;28;1135;-76
2023/04/04 07:04:13;;;;;;;;;;;;;;;1.16;75.53;102947.47;5001957;28;1137;-77
2023/04/04 07:06:38;;;;;;;;;;;;;;;1.26;75.57;102941.41;5010201;28;1156;-77
2023/04/04 07:09:03;;;;;;;;;;;;;;;1.34;75.32;102944.75;5007673;28;1717;-76
2023/04/04 07:11:29;;;;;;;;;;;;;;;1.42;75.47;102942.97;5008908;28;1078;-76
2023/04/04 07:13:54;;;;;;;;;;;;;;;1.50;74.78;102946.31;5005249;28;1170;-76
2023/04/04 07:16:19;;;;;;;;;;;;;;;1.58;75.26;102944.53;5011390;28;1997;-76
2023/04/04 07:18:45;;;;;;;;;;;;;;;1.67;74.30;102958.09;5004246;28;1237;-76
2023/04/04 07:21:10;;;;;;;;;;;;;;;1.74;75.20;102949.50;5009303;28;1263;-77
2023/04/04 07:23:35;;;;;;;;;;;;;;;1.84;74.30;102956.22;5005100;28;1122;-77
2023/04/04 07:26:01;;;;;;;;;;;;;;;1.91;74.50;102952.72;5010893;28;1258;-77
2023/04/04 07:28:26;;;;;;;;;;;;;;;2.01;74.27;102956.88;5009046;28;1213;-77
2023/04/04 07:30:51;;;;;;;;;;;;;;;2.08;74.19;102940.56;5008281;28;1126;-76
2023/04/04 07:33:17;;;;;;;;;;;;;;;2.18;73.71;102943.00;5007406;28;1297;-77
2023/04/04 07:35:42;;;;;;;;;;;;;;;2.28;72.77;102942.00;5009828;28;1969;-77
2023/04/04 07:38:08;;;;;;;;;;;;;;;2.34;72.36;102936.81;5010879;28;1138;-77
2023/04/04 07:40:33;;;;;;;;;;;;;;;2.39;72.66;102940.16;4989847;28;1206;-77
2023/04/04 07:42:58;;;;;;;;;;;;;;;2.46;71.99;102941.75;4999191;28;1034;-79
2023/04/04 07:45:23;;;;;;;;;;;;;;;2.52;71.70;102941.66;5003012;28;1085;-77
2023/04/04 07:47:49;;;;;;;;;;;;;;;2.66;70.21;102951.75;5000704;28;1136;-76
2023/04/04 07:50:14;;;;;;;;;;;;;;;2.67;71.39;102946.59;5008450;28;1145;-77
2023/04/04 07:52:40;;;;;;;;;;;;;;;2.76;70.79;102935.38;4989374;28;1241;-77
2023/04/04 07:55:06;;;;;;;;;;;;;;;2.89;70.91;102941.16;5002898;28;1962;-77
2023/04/04 07:57:32;;;;;;;;;;;;;;;3.02;70.53;102937.50;5004767;28;1199;-77
2023/04/04 07:59:57;;;;;;;;;;;;;;;3.14;70.26;102937.31;5008610;28;1116;-76
2023/04/04 08:02:22;;;;;;;;;;;;;;;3.26;69.32;102935.41;5008615;28;1088;-77
2023/04/04 08:04:47;;;;;;;;;;;;;;;3.36;69.86;102936.94;5009551;28;1086;-77
2023/04/04 08:07:13;;;;;;;;;;;;;;;3.46;70.64;102943.63;5007282;28;1007;-77
2023/04/04 08:09:38;;;;;;;;;;;;;;;3.59;68.85;102937.38;5008262;28;1128;-77
2023/04/04 08:12:04;;;;;;;;;;;;;;;3.67;67.57;102938.09;5001923;28;1140;-77
2023/04/04 08:14:30;;;;;;;;;;;;;;;3.66;65.96;102946.66;4982482;28;1245;-77
2023/04/04 08:16:56;;;;;;;;;;;;;;;3.76;67.77;102946.50;5008281;28;2035;-77
2023/04/04 08:19:21;;;;;;;;;;;;;;;3.81;66.46;102939.56;4993148;28;1049;-78
2023/04/04 08:21:47;;;;;;;;;;;;;;;3.86;64.27;102937.75;5003673;28;1280;-77
2023/04/04 08:24:12;;;;;;;;;;;;;;;3.92;64.41;102928.19;5015825;28;1195;-77
2023/04/04 08:26:37;;;;;;;;;;;;;;;3.99;65.86;102929.75;4999550;28;1015;-78
2023/04/04 08:29:02;;;;;;;;;;;;;;;4.09;66.46;102929.56;5006327;28;1141;-76
2023/04/04 08:31:28;;;;;;;;;;;;;;;4.15;63.29;102926.88;5003112;28;1066;-77
2023/04/04 08:33:54;;;;;;;;;;;;;;;4.22;65.20;102934.41;5005161;28;1238;-77
2023/04/04 08:36:19;;;;;;;;;;;;;;;4.28;65.34;102935.16;5005191;28;1957;-78
2023/04/04 08:38:44;;;;;;;;;;;;;;;4.33;64.05;102928.22;5004668;28;1416;-77
2023/04/04 08:41:14;;;;;;;;;;;;;;;4.44;64.49;102931.38;5005216;28;1442;-77
2023/04/04 08:43:40;;;;;;;;;;;;;;;4.53;59.88;102928.63;4998810;28;1062;-77
2023/04/04 08:46:07;;;;;;;;;;;;;;;4.57;61.41;102922.50;5006218;28;1155;-77
2023/04/04 08:48:33;;;;;;;;;;;;;;;4.65;60.99;102925.78;5000194;28;1187;-77
2023/04/04 08:50:59;;;;;;;;;;;;;;;4.72;59.75;102935.03;5006915;28;1311;-77
2023/04/04 08:53:25;;;;;;;;;;;;;;;4.82;60.06;102937.38;4988427;28;1210;-77
2023/04/04 08:55:51;;;;;;;;;;;;;;;4.88;59.36;102932.94;5002411;28;1886;-77
2023/04/04 08:58:16;;;;;;;;;;;;;;;4.93;59.88;102930.25;5004065;28;1217;-77
2023/04/04 09:00:41;;;;;;;;;;;;;;;4.94;57.22;102926.81;5005720;28;1274;-77
2023/04/04 09:03:13;;;;;;;;;;;;;;;4.97;56.50;102927.56;4998255;28;1308;-78
2023/04/04 09:05:38;;;;;;;;;;;;;;;5.03;57.37;102926.56;4987564;28;1324;-77
2023/04/04 09:08:04;;;;;;;;;;;;;;;5.07;56.14;102929.03;5009936;28;1141;-78
2023/04/04 09:10:30;;;;;;;;;;;;;;;5.18;58.91;102928.78;5002549;28;1183;-76
2023/04/04 09:12:56;;;;;;;;;;;;;;;5.23;58.10;102923.50;5008024;28;1325;-77
2023/04/04 09:15:22;;;;;;;;;;;;;;;5.29;56.35;102929.34;5006674;28;1898;-77
2023/04/04 09:17:47;;;;;;;;;;;;;;;5.30;54.30;102931.03;5004798;28;1123;-77
2023/04/04 09:20:31;;;;;;;;;;;;;;;5.31;54.90;102932.72;4994713;28;1055;-77
2023/04/04 09:22:56;;;;;;;;;;;;;;;5.38;56.25;102917.94;4999977;28;1510;-78
2023/04/04 09:25:21;;;;;;;;;;;;;;;5.47;55.77;102922.03;4997648;28;1467;-77
2023/04/04 09:27:48;;;;;;;;;;;;;;;5.49;55.55;102920.25;5005410;28;1296;-77
2023/04/04 09:30:14;;;;;;;;;;;;;;;5.52;56.12;102920.19;4998092;28;2298;-77
2023/04/04 09:32:40;;;;;;;;;;;;;;;5.64;55.19;102919.00;5000746;28;2429;-77
2023/04/04 09:35:05;;;;;;;;;;;;;;;5.75;55.74;102917.81;4998579;28;1974;-77
2023/04/04 09:37:31;;;;;;;;;;;;;;;5.75;53.37;102917.81;4998389;28;1958;-77
2023/04/04 09:39:56;;;;;;;;;;;;;;;5.76;54.95;102914.34;5004990;28;1868;-77
2023/04/04 09:42:23;;;;;;;;;;;;;;;5.88;55.61;102912.31;5001802;28;1925;-77
2023/04/04 09:44:52;;;;;;;;;;;;;;;5.97;54.40;102909.53;5004423;28;1040;-78
2023/04/04 09:47:23;;;;;;;;;;;;;;;5.98;53.17;102908.63;4996275;28;1270;-77
2023/04/04 09:49:49;;;;;;;;;;;;;;;5.95;52.20;102919.00;5007041;28;978;-77
2023/04/04 09:52:19;;;;;;;;;;;;;;;5.97;53.49;102912.09;5005870;28;1156;-77
2023/04/04 09:54:53;;;;;;;;;;;;;;;6.04;52.61;102909.28;5000207;28;1948;-77
2023/04/04 09:57:18;;;;;;;;;;;;;;;6.10;53.54;102913.41;4998882;28;1598;-78
2023/04/04 09:59:45;;;;;;;;;;;;;;;6.17;53.68;102912.34;5007354;28;1005;-77
2023/04/04 10:02:11;;;;;;;;;;;;;;;6.19;52.53;102913.13;5006879;28;1092;-78
2023/04/04 10:04:36;;;;;;;;;;;;;;;6.16;51.52;102908.09;4984067;28;1259;-78
2023/04/04 10:07:02;;;;;;;;;;;;;;;6.11;49.40;102915.09;4998087;28;2577;-78
2023/04/04 10:09:27;;;;;;;;;;;;;;;6.05;52.25;102910.13;4998503;28;2276;-77
2023/04/04 10:12:07;;;;;;;;;;;;;;;6.07;51.49;102910.91;5000444;28;2164;-78
2023/04/04 10:14:33;;;;;;;;;;;;;;;6.06;50.97;102907.50;5002637;28;2093;-78
2023/04/04 10:16:59;;;;;;;;;;;;;;;6.13;52.17;102903.00;4998842;28;2805;-78
2023/04/04 10:19:25;;;;;;;;;;;;;;;6.26;51.49;102899.19;4998838;28;2076;-78
2023/04/04 10:21:50;;;;;;;;;;;;;;;6.38;53.09;102898.81;4998918;28;2006;-78
2023/04/04 10:24:17;;;;;;;;;;;;;;;6.41;50.61;102897.03;4998681;28;2140;-78
2023/04/04 10:26:43;;;;;;;;;;;;;;;6.39;50.84;102895.34;5000134;28;1981;-78
2023/04/04 10:29:08;;;;;;;;;;;;;;;6.31;50.89;102899.91;5000796;28;2233;-79
2023/04/04 10:31:37;;;;;;;;;;;;;;;6.32;49.49;102904.16;5000671;28;1904;-78
2023/04/04 10:34:06;;;;;;;;;;;;;;;6.34;49.48;102892.06;4999905;28;2173;-77
2023/04/04 10:36:35;;;;;;;;;;;;;;;6.42;51.54;102888.41;5010142;28;1910;-79
2023/04/04 10:39:03;;;;;;;;;;;;;;;6.49;50.77;102889.91;5013444;28;994;-78
2023/04/04 10:41:30;;;;;;;;;;;;;;;6.59;51.18;102881.81;5009813;28;1511;-78
2023/04/04 10:43:59;;;;;;;;;;;;;;;6.59;50.21;102878.41;4989546;28;1259;-79
2023/04/04 10:46:29;;;;;;;;;;;;;;;6.59;49.87;102886.97;5015587;28;1136;-77
2023/04/04 10:48:54;;;;;;;;;;;;;;;6.60;51.36;102873.22;4987907;28;1241;-78
2023/04/04 10:51:20;;;;;;;;;;;;;;;6.65;51.31;102881.66;5014753;28;1195;-78
2023/04/04 10:53:45;;;;;;;;;;;;;;;6.75;49.45;102871.03;5009060;28;1361;-79
2023/04/04 10:56:11;;;;;;;;;;;;;;;6.75;50.16;102871.84;5007717;28;1953;-78
2023/04/04 10:58:40;;;;;;;;;;;;;;;6.79;49.94;102870.88;5009474;28;1041;-78
2023/04/04 11:01:06;;;;;;;;;;;;;;;6.89;50.93;102880.00;5010024;28;1037;-77
2023/04/04 11:03:32;;;;;;;;;;;;;;;7.01;49.13;102872.75;5009504;28;1142;-78
2023/04/04 11:06:00;;;;;;;;;;;;;;;7.01;49.84;102872.75;5008747;28;1195;-78
2023/04/04 11:08:27;;;;;;;;;;;;;;;7.10;50.59;102857.78;5008170;28;1167;-77
2023/04/04 11:10:53;;;;;;;;;;;;;;;7.17;50.24;102868.75;5005900;28;1087;-77
2023/04/04 11:13:22;;;;;;;;;;;;;;;7.20;49.51;102858.31;5011826;28;1077;-79
2023/04/04 11:15:58;;;;;;;;;;;;;;;7.23;49.33;102858.22;4994976;28;1905;-78
2023/04/04 11:18:39;;;;;;;;;;;;;;;7.28;49.22;102858.88;5004734;28;1299;-78
2023/04/04 11:21:12;;;;;;;;;;;;;;;7.37;50.79;102855.97;5014092;28;1068;-78
2023/04/04 11:23:58;;;;;;;;;;;;;;;7.52;50.38;102856.34;5008063;28;1144;-78
2023/04/04 11:26:29;;;;;;;;;;;;;;;7.63;49.72;102841.28;5004436;28;1127;-78
2023/04/04 11:28:55;;;;;;;;;;;;;;;7.76;49.93;102847.69;5008322;28;1152;-78
2023/04/04 11:31:21;;;;;;;;;;;;;;;7.71;49.42;102841.84;5000198;28;1110;-78
2023/04/04 11:34:06;;;;;;;;;;;;;;;7.64;48.41;102837.81;5004858;28;1090;-78
2023/04/04 11:36:52;;;;;;;;;;;;;;;7.62;47.94;102837.00;5003699;28;1964;-79
2023/04/04 11:39:23;;;;;;;;;;;;;;;7.71;48.80;102836.69;4985698;28;1186;-78
2023/04/04 11:41:56;;;;;;;;;;;;;;;7.60;49.03;102831.06;5002726;28;2334;-78
2023/04/04 11:44:22;;;;;;;;;;;;;;;7.73;48.73;102834.88;5000073;28;2073;-79
2023/04/04 11:46:53;;;;;;;;;;;;;;;7.79;49.68;102826.88;4992325;28;1232;-79
2023/04/04 11:49:18;;;;;;;;;;;;;;;7.89;49.19;102828.22;4998857;28;1101;-79
2023/04/04 11:51:44;;;;;;;;;;;;;;;8.01;48.08;102832.06;5003943;28;1443;-78
2023/04/04 11:54:14;;;;;;;;;;;;;;;8.08;47.64;102822.34;5004652;28;1456;-78
2023/04/04 11:56:40;;;;;;;;;;;;;;;8.12;48.59;102818.75;5005265;28;1964;-79
2023/04/04 11:59:06;;;;;;;;;;;;;;;8.09;47.63;102813.72;5007507;28;1295;-79
2023/04/04 12:01:31;;;;;;;;;;;;;;;8.18;48.02;102815.91;5006877;28;1081;-78
2023/04/04 12:03:58;;;;;;;;;;;;;;;8.21;48.33;102813.22;5003559;28;1167;-78
2023/04/04 12:06:24;;;;;;;;;;;;;;;8.31;46.86;102809.34;5006564;28;1322;-78
2023/04/04 12:08:49;;;;;;;;;;;;;;;8.35;47.27;102816.09;5003498;28;1011;-78
2023/04/04 12:11:14;;;;;;;;;;;;;;;8.38;47.90;102808.25;5013575;28;1217;-78
2023/04/04 12:13:43;;;;;;;;;;;;;;;8.46;47.34;102813.94;4990113;28;1391;-78
2023/04/04 12:16:09;;;;;;;;;;;;;;;8.54;45.75;102810.19;5001540;28;1976;-78
2023/04/04 12:18:35;;;;;;;;;;;;;;;8.60;47.09;102799.59;4998959;28;1120;-78
2023/04/04 12:21:00;;;;;;;;;;;;;;;8.67;46.53;102806.22;5010635;28;1105;-78
2023/04/04 12:23:27;;;;;;;;;;;;;;;8.67;46.97;102790.69;5007376;28;1108;-79
2023/04/04 12:25:54;;;;;;;;;;;;;;;8.72;47.86;102786.16;5008034;28;1009;-79
2023/04/04 12:28:20;;;;;;;;;;;;;;;8.80;46.21;102786.66;5008361;28;1212;-78
2023/04/04 12:30:46;;;;;;;;;;;;;;;8.78;46.95;102781.56;5008258;28;1017;-78
2023/04/04 12:33:11;;;;;;;;;;;;;;;8.83;45.85;102780.50;5003366;28;1327;-78
2023/04/04 12:35:36;;;;;;;;;;;;;;;8.74;45.63;102776.59;5005081;28;1899;-79
2023/04/04 12:38:03;;;;;;;;;;;;;;;8.75;46.91;102767.91;5005220;28;1022;-79
2023/04/04 12:40:30;;;;;;;;;;;;;;;8.89;46.61;102775.06;4995955;28;1417;-79
2023/04/04 12:42:56;;;;;;;;;;;;;;;8.92;47.50;102770.59;5004836;28;1261;-78
2023/04/04 12:45:21;;;;;;;;;;;;;;;8.99;46.58;102766.00;4994731;28;1057;-79
2023/04/04 12:47:57;;;;;;;;;;;;;;;9.04;46.61;102759.72;4992718;28;1071;-79
2023/04/04 12:50:23;;;;;;;;;;;;;;;8.88;44.79;102753.53;5002291;28;1343;-79